Time;durP1;ratioP1;P1;durP2;ratioP2;P2;SDS_P1;SDS_P2;PMS_P1;PMS_P2;Temp;Humidity;BMP_temperature;BMP_pressure;BME280_temperature;BME280_humidity;BME280_pressure;Samples;Min_cycle;Max_cycle;Signal;HPM_P1;HPM_P2
2023/05/27 00:01:35;;;;;;;11.70;1.80;;;;;;;;;;5036095;28;20288;-59
2023/05/27 00:04:03;;;;;;;4.97;1.70;;;;;;;;;;5018261;28;20692;-59
2023/05/27 00:06:30;;;;;;;4.15;1.40;;;;;;;;;;5036030;28;20215;-59
2023/05/27 00:08:57;;;;;;;4.90;1.77;;;;;;;;;;5035553;28;20236;-59
2023/05/27 00:11:25;;;;;;;5.55;1.70;;;;;;;;;;5035895;28;20207;-59
2023/05/27 00:13:52;;;;;;;4.13;1.42;;;;;;;;;;5035685;28;20205;-59
2023/05/27 00:16:19;;;;;;;6.72;1.40;;;;;;;;;;5035517;28;20231;-58
2023/05/27 00:18:47;;;;;;;7.88;1.40;;;;;;;;;;5046015;28;20294;-58
2023/05/27 00:21:14;;;;;;;4.53;1.50;;;;;;;;;;5036334;28;20295;-59
2023/05/27 00:23:45;;;;;;;5.35;1.73;;;;;;;;;;5035443;28;20215;-58
2023/05/27 00:26:12;;;;;;;5.57;1.58;;;;;;;;;;5036050;28;20534;-58
2023/05/27 00:28:43;;;;;;;4.28;1.58;;;;;;;;;;5035299;28;20217;-59
2023/05/27 00:31:10;;;;;;;6.30;1.42;;;;;;;;;;5017927;28;20197;-59
2023/05/27 00:33:38;;;;;;;4.95;1.50;;;;;;;;;;5035326;28;20567;-58
2023/05/27 00:36:05;;;;;;;6.72;1.85;;;;;;;;;;5035347;28;20243;-60
2023/05/27 00:38:32;;;;;;;8.13;1.90;;;;;;;;;;5035002;28;20670;-58
2023/05/27 00:41:01;;;;;;;4.93;1.42;;;;;;;;;;5034994;28;20228;-57
2023/05/27 00:43:30;;;;;;;2.58;1.35;;;;;;;;;;5035225;28;20209;-56
2023/05/27 00:45:57;;;;;;;5.82;1.83;;;;;;;;;;5034920;28;20727;-57
2023/05/27 00:48:25;;;;;;;3.88;1.80;;;;;;;;;;5033818;28;20594;-58
2023/05/27 00:50:52;;;;;;;6.88;1.98;;;;;;;;;;5035172;28;20205;-59
2023/05/27 00:53:19;;;;;;;3.65;1.50;;;;;;;;;;5001449;28;20205;-59
2023/05/27 00:55:47;;;;;;;3.13;1.33;;;;;;;;;;5001403;28;20288;-59
2023/05/27 00:58:15;;;;;;;5.78;1.80;;;;;;;;;;5001369;28;20259;-60
2023/05/27 01:00:42;;;;;;;6.18;1.80;;;;;;;;;;5034980;28;20204;-60
2023/05/27 01:03:09;;;;;;;4.60;1.30;;;;;;;;;;5029291;28;20200;-59
2023/05/27 01:05:38;;;;;;;4.30;1.45;;;;;;;;;;5033644;28;20215;-60
2023/05/27 01:08:29;;;;;;;6.22;1.80;;;;;;;;;;5034819;28;20578;-59
2023/05/27 01:10:56;;;;;;;8.27;1.85;;;;;;;;;;5033649;28;20276;-60
2023/05/27 01:13:36;;;;;;;4.93;1.58;;;;;;;;;;5034399;28;20205;-59
2023/05/27 01:16:10;;;;;;;8.43;1.75;;;;;;;;;;5017330;28;20271;-60
2023/05/27 01:18:46;;;;;;;7.20;1.83;;;;;;;;;;5033547;28;20597;-58
2023/05/27 01:21:19;;;;;;;4.53;1.65;;;;;;;;;;5034415;28;20211;-59
2023/05/27 01:23:47;;;;;;;9.45;2.40;;;;;;;;;;5033399;28;20219;-59
2023/05/27 01:26:15;;;;;;;7.35;1.85;;;;;;;;;;5033751;28;20196;-59
2023/05/27 01:28:44;;;;;;;4.03;1.42;;;;;;;;;;5033154;28;20262;-60
2023/05/27 01:31:36;;;;;;;6.53;1.33;;;;;;;;;;5034578;28;20200;-60
2023/05/27 01:34:09;;;;;;;5.40;1.60;;;;;;;;;;5017161;28;20222;-60
2023/05/27 01:36:41;;;;;;;4.93;1.75;;;;;;;;;;5034546;28;20243;-59
2023/05/27 01:39:12;;;;;;;9.20;2.03;;;;;;;;;;5032899;28;20213;-60
2023/05/27 01:41:40;;;;;;;5.03;1.42;;;;;;;;;;5032693;28;20598;-60
2023/05/27 01:44:12;;;;;;;9.98;2.03;;;;;;;;;;5017380;28;20193;-59
2023/05/27 01:46:41;;;;;;;9.88;2.40;;;;;;;;;;5016334;28;20280;-58
2023/05/27 01:49:09;;;;;;;4.82;1.60;;;;;;;;;;5032958;28;20251;-58
2023/05/27 01:51:36;;;;;;;6.78;2.00;;;;;;;;;;5032667;28;20204;-60
2023/05/27 01:54:04;;;;;;;5.70;1.52;;;;;;;;;;5033650;28;20207;-58
2023/05/27 01:56:31;;;;;;;6.38;2.22;;;;;;;;;;5032297;28;20657;-59
2023/05/27 01:58:58;;;;;;;6.60;1.58;;;;;;;;;;5032822;28;20575;-59
2023/05/27 02:01:27;;;;;;;4.53;1.60;;;;;;;;;;5032364;28;20208;-59
2023/05/27 02:03:56;;;;;;;3.35;1.70;;;;;;;;;;5032804;28;20220;-59
2023/05/27 02:06:23;;;;;;;5.43;1.83;;;;;;;;;;5033539;28;20204;-59
2023/05/27 02:08:51;;;;;;;5.13;1.75;;;;;;;;;;5032064;28;20232;-59
2023/05/27 02:11:18;;;;;;;6.97;1.70;;;;;;;;;;5032433;28;20215;-60
2023/05/27 02:13:45;;;;;;;2.58;1.42;;;;;;;;;;5032371;28;20200;-59
2023/05/27 02:16:12;;;;;;;5.47;2.35;;;;;;;;;;5033440;28;20224;-60
2023/05/27 02:18:40;;;;;;;5.43;2.28;;;;;;;;;;5033411;28;20209;-59
2023/05/27 02:21:07;;;;;;;3.97;1.73;;;;;;;;;;5031960;28;20200;-57
2023/05/27 02:23:36;;;;;;;8.80;1.77;;;;;;;;;;5043389;28;20211;-59
2023/05/27 02:26:03;;;;;;;3.25;1.35;;;;;;;;;;5016846;28;20314;-59
2023/05/27 02:28:30;;;;;;;9.02;1.70;;;;;;;;;;5015673;28;20225;-59
2023/05/27 02:30:58;;;;;;;6.15;1.90;;;;;;;;;;5015745;28;20205;-60
2023/05/27 02:33:26;;;;;;;5.95;1.65;;;;;;;;;;5033219;28;20303;-59
2023/05/27 02:35:53;;;;;;;4.10;1.50;;;;;;;;;;5015680;28;20204;-59
2023/05/27 02:38:20;;;;;;;7.53;1.90;;;;;;;;;;5033158;28;20208;-59
2023/05/27 02:40:47;;;;;;;6.88;1.83;;;;;;;;;;5033033;28;20262;-59
2023/05/27 02:43:15;;;;;;;4.50;1.40;;;;;;;;;;5015595;28;20204;-59
2023/05/27 02:45:42;;;;;;;2.42;1.00;;;;;;;;;;5015570;28;20205;-60
2023/05/27 02:48:09;;;;;;;6.00;1.90;;;;;;;;;;5033338;28;20235;-59
2023/05/27 02:50:38;;;;;;;5.95;1.60;;;;;;;;;;5015556;28;20236;-59
2023/05/27 02:53:05;;;;;;;4.05;1.60;;;;;;;;;;5017883;28;20208;-59
2023/05/27 02:55:32;;;;;;;3.65;1.55;;;;;;;;;;5024385;28;20223;-58
2023/05/27 02:58:00;;;;;;;3.95;1.50;;;;;;;;;;5015896;28;20212;-59
2023/05/27 03:00:27;;;;;;;2.22;1.38;;;;;;;;;;5015429;28;20299;-59
2023/05/27 03:02:54;;;;;;;5.63;1.95;;;;;;;;;;5029554;28;20597;-58
2023/05/27 03:05:23;;;;;;;6.38;1.90;;;;;;;;;;5035047;28;20200;-59
2023/05/27 03:07:50;;;;;;;3.67;1.60;;;;;;;;;;5053253;28;20235;-58
2023/05/27 03:10:17;;;;;;;2.90;1.35;;;;;;;;;;5030530;28;20200;-59
2023/05/27 03:12:45;;;;;;;5.32;1.63;;;;;;;;;;5026807;28;20205;-59
2023/05/27 03:15:12;;;;;;;2.45;1.50;;;;;;;;;;5019415;28;20287;-59
2023/05/27 03:17:40;;;;;;;3.83;1.45;;;;;;;;;;5019259;28;20212;-59
2023/05/27 03:20:09;;;;;;;9.82;1.90;;;;;;;;;;5050149;28;20212;-60
2023/05/27 03:22:37;;;;;;;6.75;1.52;;;;;;;;;;5031127;28;20223;-59
2023/05/27 03:25:05;;;;;;;4.07;1.63;;;;;;;;;;5056713;28;20200;-59
2023/05/27 03:27:32;;;;;;;5.45;1.80;;;;;;;;;;5038607;28;20730;-59
2023/05/27 03:30:04;;;;;;;6.25;2.10;;;;;;;;;;5038811;28;20231;-57
2023/05/27 03:32:35;;;;;;;3.63;1.70;;;;;;;;;;5038722;28;20570;-59
2023/05/27 03:35:03;;;;;;;4.70;2.10;;;;;;;;;;5038499;28;20203;-58
2023/05/27 03:37:32;;;;;;;7.03;2.00;;;;;;;;;;5038897;28;20211;-59
2023/05/27 03:40:05;;;;;;;4.22;1.80;;;;;;;;;;5038635;28;20195;-54
2023/05/27 03:42:34;;;;;;;5.18;2.03;;;;;;;;;;5038569;28;20204;-61
2023/05/27 03:45:02;;;;;;;3.95;1.67;;;;;;;;;;5026193;28;20604;-58
2023/05/27 03:47:29;;;;;;;6.78;1.95;;;;;;;;;;5030793;28;20204;-60
2023/05/27 03:49:57;;;;;;;8.48;2.33;;;;;;;;;;5049589;28;20220;-59
2023/05/27 03:52:24;;;;;;;4.88;1.98;;;;;;;;;;5023851;28;20205;-59
2023/05/27 03:54:51;;;;;;;13.27;2.10;;;;;;;;;;5018618;28;20204;-57
2023/05/27 03:57:19;;;;;;;7.20;2.08;;;;;;;;;;5024076;28;20220;-59
2023/05/27 03:59:46;;;;;;;5.80;2.03;;;;;;;;;;5034300;28;20219;-57
2023/05/27 04:02:15;;;;;;;5.63;1.67;;;;;;;;;;5031653;28;20203;-59
2023/05/27 04:04:42;;;;;;;5.78;2.03;;;;;;;;;;5047218;28;20570;-48
2023/05/27 04:07:09;;;;;;;3.35;1.88;;;;;;;;;;5026878;28;20211;-57
2023/05/27 04:09:36;;;;;;;4.75;1.95;;;;;;;;;;5052851;28;20254;-58
2023/05/27 04:12:06;;;;;;;7.50;2.47;;;;;;;;;;5055528;28;20711;-52
2023/05/27 04:14:33;;;;;;;3.67;1.55;;;;;;;;;;5055753;28;20286;-47
2023/05/27 04:17:00;;;;;;;6.88;1.88;;;;;;;;;;5055396;28;20204;-60
2023/05/27 04:19:27;;;;;;;4.95;1.90;;;;;;;;;;5055840;28;20258;-59
2023/05/27 04:21:54;;;;;;;8.65;1.85;;;;;;;;;;5055778;28;20579;-54
2023/05/27 04:24:24;;;;;;;5.25;1.85;;;;;;;;;;5037833;28;20207;-60
2023/05/27 04:26:52;;;;;;;5.60;2.15;;;;;;;;;;5037557;28;20207;-58
2023/05/27 04:29:20;;;;;;;3.92;2.08;;;;;;;;;;5037427;28;20224;-58
2023/05/27 04:31:47;;;;;;;5.30;1.83;;;;;;;;;;5037812;28;20211;-59
2023/05/27 04:34:18;;;;;;;6.88;1.77;;;;;;;;;;5036861;28;20223;-59
2023/05/27 04:36:49;;;;;;;6.30;2.10;;;;;;;;;;5036838;28;20204;-58
2023/05/27 04:39:20;;;;;;;6.53;2.10;;;;;;;;;;5034300;28;20547;-61
2023/05/27 04:41:48;;;;;;;10.45;2.13;;;;;;;;;;5026289;28;20247;-59
2023/05/27 04:44:31;;;;;;;6.25;2.10;;;;;;;;;;5017940;28;20258;-54
2023/05/27 04:47:00;;;;;;;4.25;2.17;;;;;;;;;;5047803;28;20223;-60
2023/05/27 04:49:27;;;;;;;7.45;2.08;;;;;;;;;;5028498;28;20235;-58
2023/05/27 04:51:55;;;;;;;4.93;2.08;;;;;;;;;;5028738;28;20273;-60
2023/05/27 04:54:23;;;;;;;4.43;1.65;;;;;;;;;;5052437;28;20708;-58
2023/05/27 04:56:51;;;;;;;5.20;1.90;;;;;;;;;;5025849;28;20231;-57
2023/05/27 04:59:45;;;;;;;5.13;1.88;;;;;;;;;;5023829;28;20228;-59
2023/05/27 05:02:21;;;;;;;7.53;2.00;;;;;;;;;;5019277;28;20747;-57
2023/05/27 05:05:12;;;;;;;3.67;1.65;;;;;;;;;;5035669;28;20308;-59
2023/05/27 05:07:41;;;;;;;11.93;2.30;;;;;;;;;;5022879;28;20217;-59
2023/05/27 05:10:11;;;;;;;3.72;1.80;;;;;;;;;;5018451;28;20234;-58
2023/05/27 05:12:46;;;;;;;5.10;2.20;;;;;;;;;;5032708;28;20714;-58
2023/05/27 05:15:13;;;;;;;4.25;1.92;;;;;;;;;;5014960;28;20708;-58
2023/05/27 05:17:41;;;;;;;4.70;1.75;;;;;;;;;;5029767;28;20212;-51
2023/05/27 05:20:09;;;;;;;5.43;1.98;;;;;;;;;;5032757;28;20277;-53
2023/05/27 05:22:37;;;;;;;6.97;1.55;;;;;;;;;;5024436;28;20685;-51
2023/05/27 05:25:05;;;;;;;8.02;2.17;;;;;;;;;;5026463;28;20692;-53
2023/05/27 05:27:41;;;;;;;8.00;2.30;;;;;;;;;;5023640;28;20591;-55
2023/05/27 05:30:09;;;;;;;7.00;2.13;;;;;;;;;;5017847;28;20232;-57
2023/05/27 05:32:37;;;;;;;8.38;2.03;;;;;;;;;;5024830;28;20236;-51
2023/05/27 05:35:05;;;;;;;4.03;2.03;;;;;;;;;;5024894;28;20310;-51
2023/05/27 05:37:34;;;;;;;4.75;1.95;;;;;;;;;;5025948;28;20234;-56
2023/05/27 05:40:01;;;;;;;4.13;1.50;;;;;;;;;;5024264;28;20618;-58
2023/05/27 05:42:32;;;;;;;6.65;2.10;;;;;;;;;;5027200;28;20215;-53
2023/05/27 05:44:59;;;;;;;6.78;2.00;;;;;;;;;;5025937;28;20296;-58
2023/05/27 05:47:27;;;;;;;5.15;1.77;;;;;;;;;;5022231;28;20227;-56
2023/05/27 05:50:04;;;;;;;3.88;1.60;;;;;;;;;;5033346;28;20779;-56
2023/05/27 05:52:34;;;;;;;6.65;2.00;;;;;;;;;;5033125;28;20238;-57
2023/05/27 05:55:01;;;;;;;5.22;1.52;;;;;;;;;;5033620;28;20224;-54
2023/05/27 05:57:31;;;;;;;4.88;1.58;;;;;;;;;;5051059;28;20634;-54
2023/05/27 06:00:03;;;;;;;4.22;1.80;;;;;;;;;;5033130;28;20225;-52
2023/05/27 06:02:31;;;;;;;6.45;2.03;;;;;;;;;;5032897;28;20262;-55
2023/05/27 06:04:59;;;;;;;7.15;1.80;;;;;;;;;;5051472;28;20228;-54
2023/05/27 06:07:27;;;;;;;7.32;1.73;;;;;;;;;;5034862;28;20224;-50
2023/05/27 06:10:02;;;;;;;7.90;2.05;;;;;;;;;;5034964;28;20738;-43
2023/05/27 06:12:38;;;;;;;3.97;1.60;;;;;;;;;;5034589;28;20613;-59
2023/05/27 06:15:06;;;;;;;5.35;1.45;;;;;;;;;;5034543;28;20286;-58
2023/05/27 06:17:38;;;;;;;5.50;1.83;;;;;;;;;;5034617;28;20224;-58
2023/05/27 06:20:06;;;;;;;3.63;1.80;;;;;;;;;;5035451;28;20224;-57
2023/05/27 06:22:34;;;;;;;4.03;1.80;;;;;;;;;;5034399;28;20223;-58
2023/05/27 06:25:28;;;;;;;4.35;1.83;;;;;;;;;;4988938;28;20241;-56
2023/05/27 06:27:59;;;;;;;3.00;1.50;;;;;;;;;;4966467;28;20237;-56
2023/05/27 06:30:26;;;;;;;2.90;1.33;;;;;;;;;;4989168;28;20406;-59
2023/05/27 06:32:55;;;;;;;2.58;1.60;;;;;;;;;;4962398;28;20790;-53
2023/05/27 06:35:24;;;;;;;5.05;1.77;;;;;;;;;;4963613;28;20790;-59
2023/05/27 06:37:52;;;;;;;5.35;1.58;;;;;;;;;;4965332;28;20233;-59
2023/05/27 06:40:19;;;;;;;4.13;1.65;;;;;;;;;;4963857;28;20269;-59
2023/05/27 06:42:47;;;;;;;5.97;1.90;;;;;;;;;;4954844;28;20719;-58
2023/05/27 06:45:40;;;;;;;2.08;1.45;;;;;;;;;;4948217;28;20317;-59
2023/05/27 06:48:52;;;;;;;6.05;1.83;;;;;;;;;;4976844;28;20242;-58
2023/05/27 06:51:20;;;;;;;9.80;1.83;;;;;;;;;;4969107;28;20750;-59
2023/05/27 06:53:48;;;;;;;4.47;1.35;;;;;;;;;;4974159;28;20234;-60
2023/05/27 06:56:20;;;;;;;3.13;1.25;;;;;;;;;;4963010;28;20246;-58
2023/05/27 06:59:06;;;;;;;3.88;1.45;;;;;;;;;;4971880;28;20241;-61
2023/05/27 07:01:33;;;;;;;3.67;1.20;;;;;;;;;;4994440;28;20311;-61
2023/05/27 07:04:03;;;;;;;3.70;1.67;;;;;;;;;;5042555;28;20224;-59
2023/05/27 07:06:43;;;;;;;2.95;1.30;;;;;;;;;;5028532;28;20235;-60
2023/05/27 07:09:12;;;;;;;3.92;1.42;;;;;;;;;;5029073;28;20227;-60
2023/05/27 07:11:42;;;;;;;4.93;1.50;;;;;;;;;;5027892;28;20223;-59
2023/05/27 07:14:15;;;;;;;2.95;1.13;;;;;;;;;;5031863;28;20220;-60
2023/05/27 07:16:43;;;;;;;4.38;1.42;;;;;;;;;;5054899;28;20231;-61
2023/05/27 07:19:11;;;;;;;4.40;1.45;;;;;;;;;;5054449;28;20613;-59
2023/05/27 07:21:46;;;;;;;3.03;1.40;;;;;;;;;;5037214;28;20226;-60
2023/05/27 07:24:18;;;;;;;4.90;1.73;;;;;;;;;;5030589;28;20227;-61
2023/05/27 07:26:45;;;;;;;3.10;1.60;;;;;;;;;;5036713;28;20227;-60
2023/05/27 07:29:13;;;;;;;3.55;1.30;;;;;;;;;;5036118;28;20261;-60
2023/05/27 07:31:53;;;;;;;1.98;1.25;;;;;;;;;;5054507;28;20224;-61
2023/05/27 07:34:25;;;;;;;2.70;1.08;;;;;;;;;;5032900;28;20221;-61
2023/05/27 07:36:52;;;;;;;6.32;1.55;;;;;;;;;;5026277;28;20215;-61
2023/05/27 07:39:19;;;;;;;5.00;1.40;;;;;;;;;;5015342;28;20709;-61
2023/05/27 07:41:47;;;;;;;6.35;1.50;;;;;;;;;;4974139;28;1201787;-60
2023/05/27 07:44:15;;;;;;;2.17;1.25;;;;;;;;;;5034637;28;20263;-63
2023/05/27 07:46:42;;;;;;;4.45;1.30;;;;;;;;;;5026935;28;20204;-64
2023/05/27 07:49:09;;;;;;;2.72;1.20;;;;;;;;;;5017560;28;20232;-63
2023/05/27 07:51:46;;;;;;;5.68;1.63;;;;;;;;;;5017676;28;20213;-64
2023/05/27 07:54:14;;;;;;;3.25;1.25;;;;;;;;;;5035600;28;20208;-65
2023/05/27 07:56:41;;;;;;;2.45;1.27;;;;;;;;;;5035970;28;20684;-64
2023/05/27 07:59:08;;;;;;;3.13;1.35;;;;;;;;;;5017926;28;20216;-65
2023/05/27 08:01:36;;;;;;;2.80;1.25;;;;;;;;;;5018619;28;20200;-64
2023/05/27 08:04:03;;;;;;;2.95;1.42;;;;;;;;;;5018456;28;20200;-64
2023/05/27 08:07:10;;;;;;;4.75;1.83;;;;;;;;;;5035207;28;20195;-65
2023/05/27 08:09:53;;;;;;;3.55;1.10;;;;;;;;;;5035709;28;20700;-61
2023/05/27 08:12:35;;;;;;;4.00;1.25;;;;;;;;;;5018128;28;20556;-63
2023/05/27 08:15:25;;;;;;;3.90;1.63;;;;;;;;;;5025011;28;20211;-64
2023/05/27 08:18:01;;;;;;;2.67;1.25;;;;;;;;;;5018316;28;20204;-63
2023/05/27 08:20:52;;;;;;;4.28;1.42;;;;;;;;;;5018109;28;20204;-64
2023/05/27 08:23:50;;;;;;;5.70;1.30;;;;;;;;;;5018210;28;20684;-64
2023/05/27 08:26:33;;;;;;;2.55;1.25;;;;;;;;;;5035451;28;20193;-64
2023/05/27 08:29:14;;;;;;;5.05;1.25;;;;;;;;;;5017762;28;20236;-64
2023/05/27 08:31:53;;;;;;;4.13;1.40;;;;;;;;;;5017907;28;20197;-64
2023/05/27 08:34:21;;;;;;;1.70;1.05;;;;;;;;;;5018182;28;20269;-64
2023/05/27 08:36:48;;;;;;;2.20;1.13;;;;;;;;;;5017949;28;20212;-64
2023/05/27 08:39:16;;;;;;;2.15;1.10;;;;;;;;;;5001387;28;20254;-64
2023/05/27 08:41:52;;;;;;;5.43;1.30;;;;;;;;;;5014468;28;20588;-65
2023/05/27 08:44:22;;;;;;;2.78;1.20;;;;;;;;;;5015881;28;20209;-64
2023/05/27 08:46:58;;;;;;;2.47;1.05;;;;;;;;;;5014191;28;20208;-64
2023/05/27 08:49:26;;;;;;;3.38;1.52;;;;;;;;;;5014092;28;20225;-66
2023/05/27 08:51:54;;;;;;;1.83;0.80;;;;;;;;;;5014307;28;20209;-64
2023/05/27 08:54:22;;;;;;;3.92;1.17;;;;;;;;;;5013913;28;20607;-65
2023/05/27 08:56:55;;;;;;;3.03;1.50;;;;;;;;;;5014413;28;20210;-64
2023/05/27 08:59:22;;;;;;;1.70;0.77;;;;;;;;;;4997791;28;20205;-65
2023/05/27 09:01:50;;;;;;;1.83;1.05;;;;;;;;;;4997828;28;20197;-65
2023/05/27 09:04:17;;;;;;;1.90;1.10;;;;;;;;;;5013885;28;20205;-64
2023/05/27 09:06:45;;;;;;;2.70;1.00;;;;;;;;;;5014889;28;20551;-64
2023/05/27 09:09:12;;;;;;;2.22;0.95;;;;;;;;;;5014068;28;20558;-66
2023/05/27 09:11:40;;;;;;;4.57;1.38;;;;;;;;;;5015296;28;20216;-65
2023/05/27 09:14:07;;;;;;;9.50;1.88;;;;;;;;;;5013812;28;20189;-64
2023/05/27 09:16:42;;;;;;;2.53;1.17;;;;;;;;;;5014848;28;20210;-64
2023/05/27 09:19:18;;;;;;;1.95;0.93;;;;;;;;;;5014649;28;20727;-64
2023/05/27 09:21:46;;;;;;;2.92;1.05;;;;;;;;;;5015082;28;20244;-64
2023/05/27 09:24:13;;;;;;;2.47;0.90;;;;;;;;;;5014774;28;20197;-64
2023/05/27 09:26:41;;;;;;;4.65;1.38;;;;;;;;;;5014496;28;20605;-64
2023/05/27 09:29:08;;;;;;;3.22;1.27;;;;;;;;;;5014629;28;20198;-65
2023/05/27 09:31:41;;;;;;;2.88;1.27;;;;;;;;;;5014474;28;20256;-65
2023/05/27 09:34:12;;;;;;;3.08;0.82;;;;;;;;;;5015478;28;20203;-64
2023/05/27 09:36:50;;;;;;;2.63;1.40;;;;;;;;;;5023472;28;20217;-64
2023/05/27 09:39:19;;;;;;;2.10;1.23;;;;;;;;;;5014576;28;20237;-65
2023/05/27 09:41:51;;;;;;;3.15;1.20;;;;;;;;;;5028654;28;20232;-65
2023/05/27 09:44:18;;;;;;;3.72;1.15;;;;;;;;;;5034291;28;20259;-64
2023/05/27 09:46:46;;;;;;;7.28;1.35;;;;;;;;;;5016816;28;20258;-64
2023/05/27 09:49:14;;;;;;;3.35;1.10;;;;;;;;;;5016629;28;20596;-65
2023/05/27 09:51:41;;;;;;;1.88;1.13;;;;;;;;;;5033929;28;20223;-66
2023/05/27 09:54:09;;;;;;;1.67;0.95;;;;;;;;;;5034096;28;20259;-64
2023/05/27 09:56:36;;;;;;;2.67;1.17;;;;;;;;;;5016648;28;20216;-64
2023/05/27 09:59:06;;;;;;;3.80;1.10;;;;;;;;;;5033655;28;20727;-64
2023/05/27 10:01:33;;;;;;;3.60;1.23;;;;;;;;;;5033510;28;20674;-64
2023/05/27 10:04:01;;;;;;;2.28;1.23;;;;;;;;;;5034127;28;20209;-65
2023/05/27 10:06:32;;;;;;;2.47;1.33;;;;;;;;;;5017143;28;20251;-64
2023/05/27 10:09:01;;;;;;;4.13;1.08;;;;;;;;;;5016782;28;20196;-64
2023/05/27 10:11:32;;;;;;;2.38;0.90;;;;;;;;;;5033865;28;20228;-59
2023/05/27 10:13:59;;;;;;;4.20;1.23;;;;;;;;;;5016511;28;20283;-59
2023/05/27 10:16:27;;;;;;;5.00;1.00;;;;;;;;;;5016237;28;20251;-60
2023/05/27 10:18:56;;;;;;;6.32;1.40;;;;;;;;;;5033657;28;20208;-59
2023/05/27 10:21:27;;;;;;;1.77;1.00;;;;;;;;;;5033285;28;20687;-59
2023/05/27 10:24:02;;;;;;;2.85;1.05;;;;;;;;;;5033429;28;20292;-59
2023/05/27 10:26:43;;;;;;;2.03;0.95;;;;;;;;;;5033658;28;20215;-59
2023/05/27 10:29:12;;;;;;;1.23;0.90;;;;;;;;;;5033352;28;20239;-60
2023/05/27 10:31:47;;;;;;;2.03;1.00;;;;;;;;;;5033664;28;20236;-61
2023/05/27 10:34:19;;;;;;;1.48;0.80;;;;;;;;;;5033343;28;20609;-60
2023/05/27 10:36:58;;;;;;;3.03;1.15;;;;;;;;;;5033559;28;20200;-60
2023/05/27 10:39:25;;;;;;;3.10;1.23;;;;;;;;;;5033613;28;20512;-59
2023/05/27 10:42:00;;;;;;;3.47;1.00;;;;;;;;;;5033486;28;20232;-59
2023/05/27 10:44:35;;;;;;;2.28;0.88;;;;;;;;;;5033135;28;20211;-57
2023/05/27 10:47:04;;;;;;;2.90;1.10;;;;;;;;;;5033557;28;20188;-59
2023/05/27 10:49:35;;;;;;;5.32;1.17;;;;;;;;;;5033384;28;20258;-60
2023/05/27 10:52:15;;;;;;;0.68;0.50;;;;;;;;;;5033537;28;20209;-60
2023/05/27 10:54:45;;;;;;;1.42;0.88;;;;;;;;;;5033071;28;20228;-60
2023/05/27 10:57:13;;;;;;;1.85;0.80;;;;;;;;;;5033378;28;20565;-60
2023/05/27 10:59:41;;;;;;;6.40;1.10;;;;;;;;;;5032943;28;20619;-60
2023/05/27 11:02:08;;;;;;;4.40;1.13;;;;;;;;;;5033013;28;20208;-60
2023/05/27 11:04:36;;;;;;;1.52;0.75;;;;;;;;;;5033003;28;20236;-60
2023/05/27 11:07:04;;;;;;;1.20;0.68;;;;;;;;;;5033323;28;20200;-60
2023/05/27 11:09:43;;;;;;;1.27;0.75;;;;;;;;;;5033088;28;20670;-60
2023/05/27 11:12:17;;;;;;;1.17;0.70;;;;;;;;;;5033315;28;20205;-60
2023/05/27 11:14:50;;;;;;;1.88;0.90;;;;;;;;;;5032909;28;20209;-60
2023/05/27 11:17:18;;;;;;;4.10;0.80;;;;;;;;;;5014897;28;20204;-60
2023/05/27 11:19:45;;;;;;;1.95;0.82;;;;;;;;;;5033185;28;20205;-59
2023/05/27 11:22:14;;;;;;;1.65;0.75;;;;;;;;;;5033122;28;20196;-60
2023/05/27 11:24:41;;;;;;;1.20;0.70;;;;;;;;;;5032744;28;20204;-61
2023/05/27 11:27:12;;;;;;;1.80;0.70;;;;;;;;;;5033108;28;20208;-60
2023/05/27 11:29:52;;;;;;;4.50;0.90;;;;;;;;;;5032997;28;20568;-60
2023/05/27 11:32:20;;;;;;;0.60;0.60;;;;;;;;;;5032949;28;20201;-60
2023/05/27 11:34:47;;;;;;;1.15;0.68;;;;;;;;;;5036635;28;20201;-59
2023/05/27 11:37:15;;;;;;;1.00;0.50;;;;;;;;;;5036867;28;20208;-60
2023/05/27 11:39:50;;;;;;;0.73;0.50;;;;;;;;;;5036393;28;20208;-59
2023/05/27 11:42:22;;;;;;;1.13;0.68;;;;;;;;;;5036323;28;20736;-60
2023/05/27 11:44:54;;;;;;;1.00;0.52;;;;;;;;;;5036214;28;20204;-60
2023/05/27 11:47:22;;;;;;;0.75;0.52;;;;;;;;;;5036949;28;20178;-60
2023/05/27 11:49:50;;;;;;;1.20;0.70;;;;;;;;;;5018809;28;20205;-60
2023/05/27 11:52:17;;;;;;;1.40;0.95;;;;;;;;;;5036327;28;20209;-60
2023/05/27 11:54:49;;;;;;;0.55;0.40;;;;;;;;;;5036279;28;20204;-59
2023/05/27 11:57:25;;;;;;;1.00;0.57;;;;;;;;;;5036180;28;20200;-61
2023/05/27 11:59:51;;;;;;;1.02;0.55;;;;;;;;;;5035901;28;20240;-61
2023/05/27 12:02:20;;;;;;;2.50;0.70;;;;;;;;;;5036004;28;20208;-60
2023/05/27 12:04:48;;;;;;;0.80;0.70;;;;;;;;;;5035854;28;20243;-60
2023/05/27 12:07:16;;;;;;;1.10;0.57;;;;;;;;;;5035829;28;20262;-59
2023/05/27 12:09:48;;;;;;;1.17;0.68;;;;;;;;;;5035797;28;20212;-60
2023/05/27 12:12:19;;;;;;;1.92;0.88;;;;;;;;;;5035893;28;20231;-60
2023/05/27 12:14:46;;;;;;;0.82;0.63;;;;;;;;;;5036134;28;20201;-61
2023/05/27 12:17:14;;;;;;;1.05;0.60;;;;;;;;;;5035911;28;20204;-60
2023/05/27 12:19:41;;;;;;;1.23;0.70;;;;;;;;;;5035601;28;20665;-59
2023/05/27 12:22:08;;;;;;;1.33;0.60;;;;;;;;;;5035619;28;20213;-60
2023/05/27 12:24:35;;;;;;;5.28;1.10;;;;;;;;;;5035450;28;20212;-60
2023/05/27 12:27:03;;;;;;;1.27;0.98;;;;;;;;;;5035942;28;20201;-60
2023/05/27 12:29:30;;;;;;;0.57;0.52;;;;;;;;;;5035611;28;20299;-60
2023/05/27 12:31:58;;;;;;;1.20;0.60;;;;;;;;;;5035321;28;20713;-60
2023/05/27 12:34:25;;;;;;;1.30;0.70;;;;;;;;;;5035721;28;20205;-60
2023/05/27 12:36:52;;;;;;;1.35;0.80;;;;;;;;;;5035577;28;20212;-59
2023/05/27 12:39:20;;;;;;;1.65;0.70;;;;;;;;;;5035137;28;20661;-60
2023/05/27 12:41:48;;;;;;;2.75;0.90;;;;;;;;;;5035266;28;20725;-58
2023/05/27 12:44:15;;;;;;;2.63;0.80;;;;;;;;;;5034177;28;20215;-60
2023/05/27 12:46:43;;;;;;;0.70;0.60;;;;;;;;;;5035220;28;20204;-59
2023/05/27 12:49:10;;;;;;;2.03;0.70;;;;;;;;;;5035062;28;20209;-59
2023/05/27 12:51:38;;;;;;;3.20;0.73;;;;;;;;;;5035214;28;20232;-60
2023/05/27 12:54:05;;;;;;;8.73;0.93;;;;;;;;;;5035174;28;20207;-60
2023/05/27 12:56:32;;;;;;;1.17;0.77;;;;;;;;;;5034924;28;20201;-60
2023/05/27 12:58:59;;;;;;;4.53;0.73;;;;;;;;;;5034927;28;20295;-60
2023/05/27 13:01:26;;;;;;;1.15;0.60;;;;;;;;;;5035110;28;20681;-59
2023/05/27 13:03:54;;;;;;;0.98;0.52;;;;;;;;;;5054749;28;20210;-60
2023/05/27 13:06:21;;;;;;;1.05;0.82;;;;;;;;;;5054957;28;20200;-60
2023/05/27 13:08:48;;;;;;;0.73;0.52;;;;;;;;;;5054767;28;20250;-60
2023/05/27 13:11:16;;;;;;;2.92;0.73;;;;;;;;;;5054746;28;20227;-60
2023/05/27 13:13:43;;;;;;;2.15;0.90;;;;;;;;;;5054718;28;20235;-60
2023/05/27 13:16:10;;;;;;;1.15;0.70;;;;;;;;;;5054480;28;20597;-60
2023/05/27 13:18:37;;;;;;;2.30;0.75;;;;;;;;;;5054443;28;20212;-59
2023/05/27 13:21:06;;;;;;;1.73;0.80;;;;;;;;;;5054671;28;20264;-61
2023/05/27 13:23:33;;;;;;;1.52;0.60;;;;;;;;;;5054261;28;20196;-59
2023/05/27 13:26:00;;;;;;;1.65;0.68;;;;;;;;;;5048175;28;20258;-59
2023/05/27 13:28:27;;;;;;;0.88;0.43;;;;;;;;;;5034737;28;20200;-60
2023/05/27 13:30:55;;;;;;;1.80;0.60;;;;;;;;;;5034497;28;20228;-58
2023/05/27 13:33:22;;;;;;;0.68;0.50;;;;;;;;;;5034367;28;20202;-60
2023/05/27 13:35:50;;;;;;;1.98;0.90;;;;;;;;;;5034356;28;20208;-60
2023/05/27 13:38:17;;;;;;;2.10;0.57;;;;;;;;;;5034121;28;20205;-58
2023/05/27 13:40:45;;;;;;;1.02;0.55;;;;;;;;;;5033999;28;20236;-59
2023/05/27 13:43:12;;;;;;;0.63;0.52;;;;;;;;;;5034038;28;20200;-61
2023/05/27 13:45:39;;;;;;;2.65;0.60;;;;;;;;;;5033944;28;20568;-58
2023/05/27 13:48:06;;;;;;;0.70;0.60;;;;;;;;;;5033926;28;20209;-61
2023/05/27 13:50:34;;;;;;;0.73;0.55;;;;;;;;;;5034024;28;20216;-59
2023/05/27 13:53:01;;;;;;;0.93;0.50;;;;;;;;;;5034021;28;20232;-59
2023/05/27 13:55:30;;;;;;;2.25;0.80;;;;;;;;;;5033748;28;20204;-59
2023/05/27 13:57:57;;;;;;;1.10;0.60;;;;;;;;;;5016336;28;20734;-60
2023/05/27 14:00:25;;;;;;;1.25;0.55;;;;;;;;;;5033709;28;20201;-60
2023/05/27 14:02:53;;;;;;;1.40;0.68;;;;;;;;;;5033794;28;20272;-60
2023/05/27 14:05:21;;;;;;;0.77;0.57;;;;;;;;;;5033924;28;20231;-57
2023/05/27 14:07:48;;;;;;;0.93;0.70;;;;;;;;;;5033658;28;20209;-57
2023/05/27 14:10:16;;;;;;;1.38;0.70;;;;;;;;;;5033562;28;20201;-60
2023/05/27 14:12:43;;;;;;;1.17;0.80;;;;;;;;;;5033714;28;20217;-59
2023/05/27 14:15:11;;;;;;;3.90;0.63;;;;;;;;;;5033833;28;20212;-59
2023/05/27 14:17:38;;;;;;;1.38;0.60;;;;;;;;;;5033958;28;20225;-57
2023/05/27 14:20:10;;;;;;;1.50;0.88;;;;;;;;;;5033618;28;20205;-60
2023/05/27 14:22:38;;;;;;;1.13;0.63;;;;;;;;;;5033863;28;20616;-58
2023/05/27 14:25:06;;;;;;;0.60;0.50;;;;;;;;;;5033363;28;20208;-59
2023/05/27 14:27:33;;;;;;;1.42;0.60;;;;;;;;;;5033280;28;20204;-60
2023/05/27 14:30:00;;;;;;;1.05;0.60;;;;;;;;;;5033647;28;20192;-59
2023/05/27 14:32:28;;;;;;;0.98;0.60;;;;;;;;;;5033352;28;20239;-57
2023/05/27 14:34:56;;;;;;;1.77;0.70;;;;;;;;;;5033428;28;20205;-59
2023/05/27 14:37:23;;;;;;;1.55;0.70;;;;;;;;;;5033273;28;20624;-60
2023/05/27 14:39:52;;;;;;;0.98;0.50;;;;;;;;;;5033194;28;20213;-59
2023/05/27 14:42:20;;;;;;;1.17;0.50;;;;;;;;;;5033401;28;20248;-60
2023/05/27 14:44:47;;;;;;;0.80;0.60;;;;;;;;;;5033273;28;20650;-59
2023/05/27 14:47:14;;;;;;;0.77;0.50;;;;;;;;;;5033285;28;20215;-54
2023/05/27 14:49:43;;;;;;;1.70;0.77;;;;;;;;;;5048877;28;20200;-59
2023/05/27 14:52:10;;;;;;;2.13;0.73;;;;;;;;;;5053225;28;20216;-53
2023/05/27 14:54:37;;;;;;;0.80;0.60;;;;;;;;;;5048004;28;20261;-60
2023/05/27 14:57:05;;;;;;;1.85;0.70;;;;;;;;;;5034409;28;20612;-58
2023/05/27 14:59:33;;;;;;;1.02;0.60;;;;;;;;;;5039546;28;20200;-60